GQPA/ATR METAR and TAF weather

Enter ICAO airport designator
Station Type Date Time Source
GQPA METAR 2020/07/12 12:00 UTC NOAA

GQPA 121200Z 28006KT 7000 NSC 36/10 Q1014


Station Type Date Time Source
GQPA Decoded METAR 2020/07/12 12:00 UTC NOAA

Atar, Mauritania (GQPA) 20-31N 013-04W 224M
Jul 12, 2020 - 08:00 AM EDT / 2020.07.12 1200 UTC
Wind: from the W (280 degrees) at 7 MPH (6 KT):0
Visibility: 4 mile(s):0
Temperature: 96 F (36 C)
Dew Point: 50 F (10 C)
Relative Humidity: 20%
Pressure (altimeter): 29.94 in. Hg (1014 hPa)
ob: GQPA 121200Z 28006KT 7000 NSC 36/10 Q1014
cycle: 12

Station Type Date Time Source
GQPA TAF UTC NOAA

Error!

Example: see airport list